Time;durP1;ratioP1;P1;durP2;ratioP2;P2;SDS_P1;SDS_P2;PMS_P1;PMS_P2;Temp;Humidity;BMP_temperature;BMP_pressure;BME280_temperature;BME280_humidity;BME280_pressure;Samples;Min_cycle;Max_cycle;Signal;HPM_P1;HPM_P2
2022/01/30 00:00:52;;;;;;;19.70;3.67;;;4.90;99.90;;;;;;5030979;28;20679;-57
2022/01/30 00:03:18;;;;;;;17.33;2.97;;;5.10;99.90;;;;;;5031054;28;20178;-57
2022/01/30 00:05:43;;;;;;;18.90;3.47;;;5.40;99.90;;;;;;5030255;28;20174;-57
2022/01/30 00:08:09;;;;;;;29.53;4.33;;;5.40;99.90;;;;;;5030847;28;20170;-57
2022/01/30 00:10:40;;;;;;;28.60;3.13;;;5.30;99.90;;;;;;5030963;28;20201;-57
2022/01/30 00:13:13;;;;;;;24.93;3.23;;;5.20;99.90;;;;;;5030938;28;20291;-56
2022/01/30 00:15:47;;;;;;;24.97;3.57;;;5.30;99.90;;;;;;5030408;28;20162;-56
2022/01/30 00:18:26;;;;;;;20.07;3.30;;;5.40;99.90;;;;;;5030910;28;20178;-56
2022/01/30 00:23:47;;;;;;;17.47;3.43;;;5.70;99.90;;;;;;4969806;28;20273;-56
2022/01/30 00:26:15;;;;;;;18.50;3.37;;;5.80;99.90;;;;;;5027990;28;20173;-56
2022/01/30 00:28:41;;;;;;;25.60;3.67;;;5.80;99.90;;;;;;5024170;28;20209;-56
2022/01/30 00:31:08;;;;;;;17.70;2.90;;;5.70;99.90;;;;;;5026450;28;20588;-57
2022/01/30 00:33:34;;;;;;;20.57;3.17;;;5.70;99.90;;;;;;5030138;28;20189;-57
2022/01/30 00:36:00;;;;;;;19.40;2.40;;;5.60;99.90;;;;;;5030584;28;20178;-56
2022/01/30 00:38:26;;;;;;;20.80;3.70;;;5.40;99.90;;;;;;5030728;28;20605;-56
2022/01/30 00:40:53;;;;;;;17.60;3.70;;;5.60;99.90;;;;;;5030465;28;20243;-57
2022/01/30 00:43:19;;;;;;;18.23;3.23;;;5.70;99.90;;;;;;5029749;28;20265;-56
2022/01/30 00:45:46;;;;;;;16.73;3.10;;;5.70;99.90;;;;;;5017115;28;20214;-56
2022/01/30 00:48:12;;;;;;;17.00;3.00;;;5.60;99.90;;;;;;5010838;28;20181;-57
2022/01/30 00:50:39;;;;;;;18.80;3.23;;;5.50;99.90;;;;;;5023873;28;20181;-58
2022/01/30 00:53:05;;;;;;;19.53;3.63;;;5.40;99.90;;;;;;5012749;28;20185;-58
2022/01/30 00:55:32;;;;;;;18.67;3.27;;;5.30;99.90;;;;;;5030368;28;20169;-57
2022/01/30 00:57:58;;;;;;;18.67;3.17;;;5.10;99.90;;;;;;5030596;28;20186;-57
2022/01/30 01:00:26;;;;;;;19.90;3.20;;;5.10;99.90;;;;;;5029915;28;20205;-57
2022/01/30 01:02:52;;;;;;;27.73;3.73;;;5.10;99.90;;;;;;5030413;28;20305;-57
2022/01/30 01:05:19;;;;;;;20.83;3.60;;;5.10;99.90;;;;;;5030240;28;20196;-57
2022/01/30 01:07:47;;;;;;;26.27;3.47;;;5.00;99.90;;;;;;5030087;28;20174;-57
2022/01/30 01:10:29;;;;;;;19.53;3.57;;;5.00;99.90;;;;;;5029655;28;20612;-57
2022/01/30 01:21:00;;;;;;;21.80;3.20;;;4.70;99.90;;;;;;5029663;28;20247;-56
2022/01/30 01:23:30;;;;;;;19.40;2.93;;;4.70;99.90;;;;;;5029973;28;20186;-57
2022/01/30 01:25:58;;;;;;;25.83;3.10;;;4.60;99.90;;;;;;5012456;28;20186;-58
2022/01/30 01:28:25;;;;;;;22.63;3.13;;;4.50;99.90;;;;;;5030148;28;20208;-58
2022/01/30 01:30:51;;;;;;;29.00;3.27;;;4.50;99.90;;;;;;5029940;28;20174;-58
2022/01/30 01:33:17;;;;;;;21.13;4.03;;;4.50;99.90;;;;;;5029802;28;20260;-58
2022/01/30 01:35:43;;;;;;;18.00;2.90;;;4.50;99.90;;;;;;5029848;28;20174;-58
2022/01/30 01:38:12;;;;;;;16.43;2.67;;;4.40;99.90;;;;;;5012326;28;20264;-57
2022/01/30 01:40:40;;;;;;;17.97;3.20;;;4.40;99.90;;;;;;5029620;28;20596;-57
2022/01/30 01:43:06;;;;;;;30.23;3.13;;;4.40;99.90;;;;;;5029706;28;20535;-57
2022/01/30 01:45:39;;;;;;;22.80;3.20;;;4.60;99.90;;;;;;5030006;28;20277;-57
2022/01/30 01:48:13;;;;;;;24.20;4.07;;;4.40;99.90;;;;;;5030018;28;20231;-57
2022/01/30 01:50:50;;;;;;;22.37;3.20;;;4.40;99.90;;;;;;5009778;28;20177;-57
2022/01/30 01:53:19;;;;;;;23.27;3.50;;;4.30;99.90;;;;;;5021028;28;20170;-57
2022/01/30 01:55:44;;;;;;;21.67;3.47;;;4.40;99.90;;;;;;5032321;28;20174;-57
2022/01/30 01:58:10;;;;;;;27.77;4.00;;;4.30;99.90;;;;;;5033176;28;20197;-57
2022/01/30 02:00:37;;;;;;;20.50;3.17;;;4.30;99.90;;;;;;5015822;28;20209;-57
2022/01/30 02:03:04;;;;;;;31.63;3.60;;;4.40;99.90;;;;;;5033167;28;20178;-57
2022/01/30 02:05:33;;;;;;;24.90;3.57;;;4.30;99.90;;;;;;5033585;28;20226;-57
2022/01/30 02:11:17;;;;;;;19.37;3.17;;;4.60;99.90;;;;;;5033044;28;20197;-58
2022/01/30 02:13:47;;;;;;;18.80;2.90;;;4.50;99.90;;;;;;5024448;28;20205;-58
2022/01/30 02:27:24;;;;;;;19.67;2.57;;;4.20;99.90;;;;;;5032932;28;20273;-58
2022/01/30 02:29:50;;;;;;;15.53;3.33;;;4.20;99.90;;;;;;5033155;28;20166;-58
2022/01/30 02:32:16;;;;;;;21.53;3.17;;;4.10;99.90;;;;;;5033152;28;20751;-57
2022/01/30 02:34:43;;;;;;;27.80;4.10;;;4.00;99.90;;;;;;5033140;28;20170;-58
2022/01/30 02:37:09;;;;;;;27.67;4.07;;;4.00;99.90;;;;;;5031457;28;20198;-58
2022/01/30 02:39:35;;;;;;;26.10;4.43;;;4.00;99.90;;;;;;5032705;28;20265;-58
2022/01/30 02:42:01;;;;;;;17.93;3.57;;;3.90;99.90;;;;;;5032832;28;20296;-59
2022/01/30 02:44:42;;;;;;;16.53;2.60;;;3.80;99.90;;;;;;5032940;28;20174;-59
2022/01/30 02:47:20;;;;;;;26.07;3.17;;;4.10;99.90;;;;;;5031770;28;20220;-59
2022/01/30 02:50:09;;;;;;;27.17;4.13;;;4.00;99.90;;;;;;5032754;28;20174;-59
2022/01/30 02:52:35;;;;;;;19.27;3.33;;;4.00;99.90;;;;;;5032521;28;20185;-59
2022/01/30 02:55:01;;;;;;;18.97;2.90;;;3.90;99.90;;;;;;5025999;28;20181;-58
2022/01/30 02:57:26;;;;;;;22.70;3.30;;;3.90;99.90;;;;;;5032245;28;20178;-58
2022/01/30 02:59:52;;;;;;;26.20;3.43;;;;;;;;;;5032032;28;20287;-59
2022/01/30 03:02:18;;;;;;;24.57;3.17;;;3.70;99.90;;;;;;5032140;28;20206;-59
2022/01/30 03:04:44;;;;;;;22.20;2.77;;;3.70;99.90;;;;;;5032434;28;20170;-59
2022/01/30 03:07:10;;;;;;;18.00;3.20;;;3.60;99.90;;;;;;5031668;28;20201;-58
2022/01/30 03:09:36;;;;;;;25.47;4.00;;;3.60;99.90;;;;;;5031691;28;20500;-58
2022/01/30 03:12:03;;;;;;;28.83;3.03;;;3.60;99.90;;;;;;5032264;28;20211;-57
2022/01/30 03:14:29;;;;;;;23.27;4.00;;;3.60;99.90;;;;;;5032258;28;20216;-57
2022/01/30 03:16:55;;;;;;;12.27;2.63;;;3.50;99.90;;;;;;5032059;28;20221;-57
2022/01/30 03:19:21;;;;;;;19.20;3.53;;;3.60;99.90;;;;;;5031888;28;20268;-57
2022/01/30 03:21:46;;;;;;;24.43;3.80;;;3.60;99.90;;;;;;5031786;28;20296;-57
2022/01/30 03:24:12;;;;;;;20.60;3.37;;;3.50;99.90;;;;;;5031725;28;20633;-57
2022/01/30 03:26:40;;;;;;;24.37;3.37;;;3.50;99.90;;;;;;5032219;28;20186;-58
2022/01/30 03:29:07;;;;;;;18.33;3.47;;;3.40;99.90;;;;;;5032035;28;20174;-58
2022/01/30 03:31:39;;;;;;;19.70;3.30;;;3.40;99.90;;;;;;5032178;28;20201;-58
2022/01/30 03:34:07;;;;;;;22.87;3.40;;;3.30;99.90;;;;;;5031493;28;20170;-57
2022/01/30 03:36:34;;;;;;;23.37;4.17;;;3.30;99.90;;;;;;5031577;28;20186;-57
2022/01/30 03:39:00;;;;;;;21.70;3.77;;;3.30;99.90;;;;;;5031745;28;20171;-58
2022/01/30 03:41:26;;;;;;;27.73;3.97;;;3.20;99.90;;;;;;5013817;28;20217;-58
2022/01/30 03:43:53;;;;;;;21.07;3.30;;;3.20;99.90;;;;;;5031293;28;20178;-57
2022/01/30 03:46:20;;;;;;;23.13;3.40;;;3.30;99.90;;;;;;5031746;28;20174;-57
2022/01/30 03:48:47;;;;;;;11.70;2.43;;;3.30;99.90;;;;;;5031960;28;20567;-57
2022/01/30 03:51:13;;;;;;;19.63;3.17;;;3.30;99.90;;;;;;5031287;28;20265;-57
2022/01/30 03:53:39;;;;;;;17.90;2.57;;;3.20;99.90;;;;;;5031219;28;20186;-58
2022/01/30 03:56:05;;;;;;;18.30;2.30;;;3.20;99.90;;;;;;5031471;28;20176;-58
2022/01/30 03:58:32;;;;;;;17.00;2.47;;;3.20;99.90;;;;;;5031071;28;20185;-58
2022/01/30 04:00:58;;;;;;;16.17;2.70;;;3.10;99.90;;;;;;5030805;28;20209;-58
2022/01/30 04:03:24;;;;;;;18.57;2.73;;;3.10;99.90;;;;;;5030718;28;20178;-58
2022/01/30 04:05:49;;;;;;;26.73;3.00;;;3.10;99.90;;;;;;5031342;28;20190;-59
2022/01/30 04:08:16;;;;;;;24.40;2.90;;;3.10;99.90;;;;;;5031357;28;20189;-58
2022/01/30 04:10:42;;;;;;;18.40;3.17;;;3.10;99.90;;;;;;5031222;28;20169;-58
2022/01/30 04:13:07;;;;;;;18.67;2.67;;;3.10;99.90;;;;;;5030369;28;20530;-58
2022/01/30 04:15:34;;;;;;;19.17;3.13;;;3.00;99.90;;;;;;5018556;28;20178;-58
2022/01/30 04:18:02;;;;;;;15.43;2.40;;;3.00;99.90;;;;;;5013601;28;20216;-59
2022/01/30 04:20:28;;;;;;;27.07;3.20;;;3.00;99.90;;;;;;5031009;28;20546;-59
2022/01/30 04:22:54;;;;;;;20.17;3.57;;;2.90;99.90;;;;;;5030823;28;20178;-59
2022/01/30 04:25:20;;;;;;;21.90;2.80;;;2.90;99.90;;;;;;5030843;28;20189;-59
2022/01/30 04:27:46;;;;;;;22.20;3.03;;;2.90;99.90;;;;;;5030813;28;20174;-58
2022/01/30 04:30:13;;;;;;;23.53;3.13;;;2.90;99.90;;;;;;5030956;28;20231;-58
2022/01/30 04:32:43;;;;;;;16.30;2.50;;;2.90;99.90;;;;;;5030367;28;20186;-58
2022/01/30 04:35:14;;;;;;;15.63;2.43;;;3.00;99.90;;;;;;5030587;28;20186;-57
2022/01/30 04:57:01;;;;;;;16.73;3.20;;;2.70;99.90;;;;;;4996745;28;20228;-57
2022/01/30 05:02:39;;;;;;;22.37;3.03;;;2.80;99.90;;;;;;5030187;28;20254;-58
2022/01/30 05:07:41;;;;;;;23.80;3.50;;;2.70;99.90;;;;;;5030596;28;20251;-58
2022/01/30 05:10:07;;;;;;;24.53;3.53;;;2.70;99.90;;;;;;5029969;28;20173;-58
2022/01/30 05:12:44;;;;;;;24.30;3.53;;;2.70;99.90;;;;;;5030545;28;20186;-59
2022/01/30 05:15:11;;;;;;;21.37;3.20;;;2.60;99.90;;;;;;5028184;28;20169;-59
2022/01/30 05:17:37;;;;;;;20.83;3.57;;;2.60;99.90;;;;;;5026196;28;20221;-59
2022/01/30 05:20:03;;;;;;;20.00;3.77;;;2.60;99.90;;;;;;5029815;28;20250;-59
2022/01/30 05:22:29;;;;;;;26.73;4.17;;;2.50;99.90;;;;;;5030257;28;20212;-59
2022/01/30 05:24:55;;;;;;;19.23;3.67;;;2.50;99.90;;;;;;5030426;28;20178;-59
2022/01/30 05:27:21;;;;;;;26.03;4.30;;;2.50;99.90;;;;;;5030383;28;20174;-59
2022/01/30 05:29:47;;;;;;;23.60;3.87;;;2.40;99.90;;;;;;5031104;28;20206;-59
2022/01/30 05:32:13;;;;;;;31.60;4.00;;;2.40;99.90;;;;;;5034314;28;20632;-59
2022/01/30 05:34:39;;;;;;;21.73;3.90;;;2.50;99.90;;;;;;5034227;28;20182;-57
2022/01/30 05:37:08;;;;;;;23.77;3.47;;;2.50;99.90;;;;;;5034286;28;20174;-58
2022/01/30 05:39:34;;;;;;;17.20;3.53;;;2.40;99.90;;;;;;5033773;28;20178;-58
2022/01/30 05:42:00;;;;;;;20.47;4.20;;;2.40;99.90;;;;;;5015987;28;20236;-58
2022/01/30 05:44:40;;;;;;;25.80;3.87;;;2.40;99.90;;;;;;5034092;28;20640;-58
2022/01/30 05:47:11;;;;;;;26.30;3.90;;;2.40;99.90;;;;;;5033512;28;20304;-58
2022/01/30 05:49:37;;;;;;;22.17;4.13;;;2.40;99.90;;;;;;5034152;28;20166;-58
2022/01/30 05:52:03;;;;;;;25.93;4.40;;;2.40;99.90;;;;;;5033799;28;20468;-58
2022/01/30 05:54:29;;;;;;;27.60;3.50;;;2.40;99.90;;;;;;5027996;28;20185;-58
2022/01/30 05:56:55;;;;;;;25.13;3.40;;;2.40;99.90;;;;;;5033155;28;20166;-58
2022/01/30 05:59:21;;;;;;;21.43;3.37;;;;;;;;;;5033566;28;20170;-58
2022/01/30 06:01:47;;;;;;;21.40;4.20;;;2.20;99.90;;;;;;5033884;28;20213;-58
2022/01/30 06:04:12;;;;;;;17.17;3.87;;;2.20;99.90;;;;;;5034052;28;20162;-58
2022/01/30 06:06:47;;;;;;;18.33;3.90;;;2.20;99.90;;;;;;5033615;28;20599;-61
2022/01/30 06:09:22;;;;;;;30.00;3.90;;;2.20;99.90;;;;;;5033506;28;20177;-60
2022/01/30 06:11:49;;;;;;;20.13;3.40;;;2.20;99.90;;;;;;5033826;28;20256;-60
2022/01/30 06:14:20;;;;;;;19.53;3.53;;;2.10;99.90;;;;;;5032564;28;20192;-58
2022/01/30 06:16:46;;;;;;;18.97;3.10;;;2.20;99.90;;;;;;5033481;28;20215;-58
2022/01/30 06:19:11;;;;;;;18.40;3.30;;;2.10;99.90;;;;;;5033352;28;20181;-59
2022/01/30 06:21:37;;;;;;;24.93;3.53;;;2.10;99.90;;;;;;5033628;28;20206;-58
2022/01/30 06:24:03;;;;;;;13.93;3.07;;;2.00;99.90;;;;;;5032829;28;20515;-59
2022/01/30 06:26:29;;;;;;;23.17;3.50;;;2.10;99.90;;;;;;5033737;28;20213;-58
2022/01/30 06:28:55;;;;;;;28.37;3.17;;;2.10;99.90;;;;;;5033485;28;20173;-58
2022/01/30 06:31:22;;;;;;;26.37;3.23;;;2.00;99.90;;;;;;5032744;28;20174;-58
2022/01/30 06:33:48;;;;;;;30.33;4.00;;;1.90;99.90;;;;;;5033400;28;20198;-58
2022/01/30 06:36:14;;;;;;;23.47;4.10;;;1.90;99.90;;;;;;5033100;28;20219;-58
2022/01/30 06:38:39;;;;;;;28.00;4.33;;;2.00;99.90;;;;;;5031873;28;20743;-59
2022/01/30 06:41:05;;;;;;;23.67;4.10;;;2.00;99.90;;;;;;5031656;28;20251;-58
2022/01/30 06:43:31;;;;;;;23.60;5.00;;;2.00;99.90;;;;;;5032862;28;20275;-58
2022/01/30 06:45:56;;;;;;;18.63;3.50;;;2.00;99.90;;;;;;5032783;28;20641;-58
2022/01/30 06:48:23;;;;;;;24.57;4.60;;;1.90;99.90;;;;;;5033107;28;20529;-59
2022/01/30 06:50:48;;;;;;;26.13;4.80;;;1.90;99.90;;;;;;5033153;28;20170;-58
2022/01/30 06:53:14;;;;;;;22.00;4.10;;;1.80;99.90;;;;;;5032895;28;20174;-58
2022/01/30 06:55:42;;;;;;;26.50;4.43;;;1.90;99.90;;;;;;5032529;28;20696;-57
2022/01/30 06:58:14;;;;;;;20.90;4.13;;;1.90;99.90;;;;;;5032988;28;20287;-58
2022/01/30 07:00:41;;;;;;;15.77;3.93;;;1.90;99.90;;;;;;5032867;28;20237;-59
2022/01/30 07:03:07;;;;;;;25.13;4.77;;;1.80;99.90;;;;;;5032774;28;20182;-57
2022/01/30 07:05:33;;;;;;;23.77;3.77;;;1.70;99.90;;;;;;5032101;28;20185;-57
2022/01/30 07:07:59;;;;;;;14.97;3.57;;;1.70;99.90;;;;;;5032794;28;20178;-58
2022/01/30 07:10:25;;;;;;;14.23;3.47;;;1.70;99.90;;;;;;5032768;28;20281;-59
2022/01/30 07:12:51;;;;;;;29.40;4.87;;;1.70;99.90;;;;;;5032272;28;20173;-59
2022/01/30 07:15:17;;;;;;;16.60;3.80;;;1.60;99.90;;;;;;5020698;28;20201;-59
2022/01/30 07:17:43;;;;;;;20.57;4.00;;;1.70;99.90;;;;;;5032197;28;20221;-59
2022/01/30 07:20:09;;;;;;;21.70;4.00;;;1.70;99.90;;;;;;5032560;28;20665;-58
2022/01/30 07:22:35;;;;;;;26.10;4.77;;;1.70;99.90;;;;;;5032129;28;20189;-57
2022/01/30 07:25:05;;;;;;;18.30;3.83;;;1.60;99.90;;;;;;5032509;28;20170;-58
2022/01/30 07:27:31;;;;;;;24.17;4.53;;;;;;;;;;5031390;28;20184;-58
2022/01/30 07:29:57;;;;;;;28.40;4.30;;;1.70;99.90;;;;;;5032033;28;20537;-57
2022/01/30 07:32:23;;;;;;;31.17;4.10;;;1.70;99.90;;;;;;5031965;28;20169;-57
2022/01/30 07:34:52;;;;;;;28.33;4.53;;;1.70;99.90;;;;;;5031868;28;20648;-58
2022/01/30 07:37:19;;;;;;;20.80;3.53;;;1.70;99.90;;;;;;5032222;28;20197;-58
2022/01/30 07:39:45;;;;;;;18.23;4.20;;;1.60;99.90;;;;;;5031298;28;20209;-58
2022/01/30 07:42:11;;;;;;;16.80;3.50;;;1.60;99.90;;;;;;5031115;28;20213;-56
2022/01/30 07:44:38;;;;;;;23.87;4.47;;;1.60;99.90;;;;;;5032031;28;20196;-61
2022/01/30 07:47:04;;;;;;;17.87;3.27;;;1.60;99.90;;;;;;5013430;28;20553;-59
2022/01/30 07:49:30;;;;;;;21.60;3.87;;;1.50;99.90;;;;;;5031525;28;20178;-58
2022/01/30 07:51:55;;;;;;;16.03;3.60;;;1.50;99.90;;;;;;5030949;28;20714;-60
2022/01/30 07:54:21;;;;;;;25.80;4.07;;;1.60;99.90;;;;;;5029287;28;20193;-60
2022/01/30 07:56:47;;;;;;;19.63;3.77;;;1.60;99.90;;;;;;5027282;28;20686;-59
2022/01/30 07:59:13;;;;;;;19.37;3.80;;;1.60;99.90;;;;;;5042267;28;20179;-61
2022/01/30 08:01:39;;;;;;;23.37;4.13;;;1.70;99.90;;;;;;5025352;28;20583;-61
2022/01/30 08:04:08;;;;;;;21.33;4.10;;;1.70;99.90;;;;;;5031401;28;20170;-59
2022/01/30 08:06:35;;;;;;;17.37;4.00;;;1.60;99.90;;;;;;5030958;28;20255;-60
2022/01/30 08:09:01;;;;;;;33.93;4.93;;;1.70;99.90;;;;;;5031207;28;20667;-59
2022/01/30 08:11:27;;;;;;;20.20;3.80;;;1.80;99.90;;;;;;5031449;28;20209;-60
2022/01/30 08:13:52;;;;;;;23.60;3.50;;;1.70;99.90;;;;;;5031352;28;20198;-61
2022/01/30 08:16:23;;;;;;;28.13;4.33;;;1.80;99.90;;;;;;5030688;28;20225;-59
2022/01/30 08:18:49;;;;;;;18.80;3.33;;;1.80;99.90;;;;;;5019075;28;20258;-59
2022/01/30 08:21:15;;;;;;;13.37;3.00;;;1.90;99.90;;;;;;5011331;28;20293;-60
2022/01/30 08:23:41;;;;;;;18.80;4.03;;;2.00;99.90;;;;;;5015890;28;20220;-59
2022/01/30 08:26:06;;;;;;;24.90;4.67;;;2.20;99.90;;;;;;5030328;28;20185;-59
2022/01/30 08:28:32;;;;;;;25.03;4.03;;;2.40;99.90;;;;;;5030878;28;20205;-60
2022/01/30 08:30:58;;;;;;;19.47;3.33;;;2.50;99.90;;;;;;5030439;28;20264;-59
2022/01/30 08:33:24;;;;;;;31.67;3.57;;;2.60;99.90;;;;;;5030680;28;20532;-59
2022/01/30 08:35:50;;;;;;;14.83;3.23;;;2.80;99.90;;;;;;5024806;28;20200;-60
2022/01/30 08:38:18;;;;;;;30.47;3.70;;;3.20;99.90;;;;;;5030807;28;20193;-60
2022/01/30 08:40:48;;;;;;;16.97;3.33;;;3.50;99.90;;;;;;5006295;28;20204;-59
2022/01/30 08:43:14;;;;;;;24.53;4.30;;;3.60;99.90;;;;;;5017336;28;20174;-58
2022/01/30 08:45:41;;;;;;;18.63;3.93;;;3.60;99.90;;;;;;5029738;28;20426;-59
2022/01/30 08:48:08;;;;;;;16.17;3.70;;;3.80;99.90;;;;;;5030072;28;20173;-58
2022/01/30 08:50:34;;;;;;;23.40;4.17;;;3.90;99.90;;;;;;5020631;28;20654;-56
2022/01/30 08:52:59;;;;;;;14.10;3.20;;;4.10;99.90;;;;;;5019641;28;20575;-56
2022/01/30 08:55:29;;;;;;;15.63;3.60;;;4.70;99.90;;;;;;5030445;28;20751;-58
2022/01/30 08:57:56;;;;;;;16.73;3.60;;;5.60;99.90;;;;;;5029713;28;20186;-57
2022/01/30 09:00:21;;;;;;;16.57;3.97;;;6.40;99.90;;;;;;5012232;28;20264;-57
2022/01/30 09:02:47;;;;;;;18.27;4.33;;;7.20;99.90;;;;;;5030114;28;20352;-57
2022/01/30 09:05:13;;;;;;;14.57;3.93;;;7.50;99.90;;;;;;5011781;28;20178;-58
2022/01/30 09:07:42;;;;;;;15.93;4.50;;;7.40;99.90;;;;;;5029991;28;20186;-58
2022/01/30 09:10:10;;;;;;;18.47;4.33;;;6.80;99.90;;;;;;5030101;28;20279;-59
2022/01/30 09:12:36;;;;;;;15.83;3.97;;;7.60;99.90;;;;;;5029877;28;20554;-58
2022/01/30 09:15:04;;;;;;;14.30;4.00;;;8.50;99.90;;;;;;5029105;28;20262;-60
2022/01/30 09:17:30;;;;;;;19.03;4.43;;;9.20;99.90;;;;;;5024297;28;20235;-61
2022/01/30 09:19:55;;;;;;;15.47;3.77;;;8.70;99.90;;;;;;5026560;28;20628;-60
2022/01/30 09:22:21;;;;;;;15.07;4.00;;;8.80;99.90;;;;;;5029788;28;20205;-60
2022/01/30 09:24:47;;;;;;;16.53;4.40;;;9.30;99.90;;;;;;5030162;28;20170;-60
2022/01/30 09:27:13;;;;;;;14.20;4.50;;;9.10;99.90;;;;;;5029468;28;20177;-60
2022/01/30 09:29:40;;;;;;;15.17;4.53;;;9.30;99.90;;;;;;5029984;28;20224;-60
2022/01/30 09:32:07;;;;;;;17.07;4.47;;;9.30;99.90;;;;;;5029768;28;20174;-64
2022/01/30 09:34:34;;;;;;;19.20;4.20;;;8.40;99.90;;;;;;5011870;28;20276;-59
2022/01/30 09:37:00;;;;;;;18.00;5.27;;;8.00;99.90;;;;;;5030122;28;20181;-59
2022/01/30 09:39:26;;;;;;;20.57;6.57;;;8.30;99.90;;;;;;5012134;28;20269;-59
2022/01/30 09:41:53;;;;;;;42.17;16.50;;;7.80;99.90;;;;;;5029497;28;20209;-59
2022/01/30 09:44:20;;;;;;;17.60;6.67;;;8.00;99.90;;;;;;5028572;28;20209;-60
2022/01/30 09:46:47;;;;;;;23.30;6.80;;;8.50;99.90;;;;;;5028156;28;20178;-60
2022/01/30 09:49:14;;;;;;;17.77;6.33;;;9.10;99.90;;;;;;5020326;28;20186;-60
2022/01/30 09:51:42;;;;;;;20.43;6.73;;;10.20;99.90;;;;;;5013871;28;20182;-59
2022/01/30 09:54:08;;;;;;;21.60;6.90;;;10.20;99.90;;;;;;5028851;28;20267;-58
2022/01/30 09:56:35;;;;;;;20.00;5.67;;;9.80;99.90;;;;;;5023879;28;20230;-58
2022/01/30 09:59:01;;;;;;;25.07;6.20;;;9.50;99.90;;;;;;5023319;28;20170;-59
2022/01/30 10:01:37;;;;;;;17.57;6.00;;;9.10;99.90;;;;;;5029365;28;20209;-58
2022/01/30 10:04:06;;;;;;;24.63;6.93;;;9.30;99.90;;;;;;5009201;28;20196;-60
2022/01/30 10:06:55;;;;;;;21.43;6.37;;;9.50;99.90;;;;;;5029417;28;20177;-57
2022/01/30 10:09:25;;;;;;;20.03;7.40;;;9.30;99.90;;;;;;5029953;28;20208;-58
2022/01/30 10:12:01;;;;;;;19.53;6.97;;;8.90;99.90;;;;;;5028327;28;20182;-58
2022/01/30 10:14:27;;;;;;;32.00;9.33;;;8.50;99.90;;;;;;5028724;28;20232;-57
2022/01/30 10:16:53;;;;;;;26.77;8.23;;;8.30;99.90;;;;;;5031610;28;20229;-56
2022/01/30 10:19:23;;;;;;;24.50;7.00;;;8.10;99.90;;;;;;5027115;28;20179;-56
2022/01/30 10:21:50;;;;;;;20.77;7.43;;;8.40;99.90;;;;;;5033148;28;20198;-56
2022/01/30 10:24:25;;;;;;;26.63;7.50;;;8.50;99.90;;;;;;5033198;28;20170;-56
2022/01/30 10:27:02;;;;;;;23.03;6.50;;;8.60;99.90;;;;;;5032954;28;20224;-56
2022/01/30 10:29:32;;;;;;;21.07;6.17;;;8.60;99.90;;;;;;5030957;28;20166;-57
2022/01/30 10:32:08;;;;;;;15.87;5.60;;;8.80;99.90;;;;;;5028952;28;20171;-56
2022/01/30 10:34:36;;;;;;;47.00;11.60;;;8.70;99.90;;;;;;5031814;28;20228;-56
2022/01/30 10:37:21;;;;;;;26.33;6.50;;;8.50;99.90;;;;;;5024520;28;20173;-56
2022/01/30 10:40:01;;;;;;;28.23;6.83;;;8.70;99.90;;;;;;5032042;28;20186;-56
2022/01/30 10:42:48;;;;;;;33.60;6.00;;;9.90;99.90;;;;;;5034524;28;20745;-56
2022/01/30 10:45:32;;;;;;;16.77;6.00;;;10.70;99.90;;;;;;5016297;28;20178;-57
2022/01/30 10:48:23;;;;;;;73.87;17.33;;;11.90;99.90;;;;;;5031253;28;20200;-57
2022/01/30 10:50:50;;;;;;;48.17;12.27;;;11.50;99.90;;;;;;5030594;28;20264;-57
2022/01/30 10:53:26;;;;;;;77.83;19.17;;;12.10;99.90;;;;;;5031391;28;20209;-57
2022/01/30 10:55:52;;;;;;;24.00;6.40;;;12.30;99.90;;;;;;5017004;28;20177;-57
2022/01/30 10:58:21;;;;;;;27.07;6.30;;;13.00;99.90;;;;;;5018382;28;20210;-58
2022/01/30 11:00:48;;;;;;;21.83;5.93;;;12.60;99.90;;;;;;5014192;28;20569;-59
2022/01/30 11:03:37;;;;;;;93.37;21.63;;;13.40;99.90;;;;;;5031436;28;20235;-59
2022/01/30 11:06:06;;;;;;;21.60;6.30;;;15.10;99.90;;;;;;5031557;28;20177;-59
2022/01/30 11:08:33;;;;;;;21.15;5.85;;;14.90;99.90;;;;;;5032122;28;20181;-59
2022/01/30 11:11:03;;;;;;;22.73;5.70;;;15.90;99.90;;;;;;5031767;28;20170;-59
2022/01/30 11:13:32;;;;;;;19.85;6.03;;;15.90;99.90;;;;;;5026200;28;20186;-60
2022/01/30 11:18:53;;;;;;;27.77;6.97;;;16.20;99.90;;;;;;4999740;28;20205;-60
2022/01/30 11:21:22;;;;;;;20.48;6.88;;;17.80;99.90;;;;;;5023990;28;20195;-61
2022/01/30 11:23:51;;;;;;;21.60;8.18;;;18.80;99.90;;;;;;5028700;28;20174;-61
2022/01/30 11:26:18;;;;;;;28.33;9.45;;;20.10;99.90;;;;;;5028512;28;20549;-61
2022/01/30 11:28:45;;;;;;;25.20;9.20;;;20.60;99.90;;;;;;5029169;28;20651;-61
2022/01/30 11:31:16;;;;;;;27.58;11.25;;;20.40;99.90;;;;;;5029867;28;20170;-61
2022/01/30 11:33:44;;;;;;;29.17;10.30;;;21.10;99.90;;;;;;5030696;28;20647;-62
2022/01/30 11:36:10;;;;;;;23.83;9.70;;;21.10;99.90;;;;;;5013432;28;20292;-61
2022/01/30 11:38:37;;;;;;;21.98;8.98;;;20.90;99.90;;;;;;5031377;28;20202;-61
2022/01/30 11:41:15;;;;;;;26.35;9.02;;;21.90;99.90;;;;;;5031242;28;20292;-59
2022/01/30 11:44:19;;;;;;;25.67;9.02;;;22.40;99.90;;;;;;5027937;28;20251;-61
2022/01/30 11:47:05;;;;;;;25.48;5.55;;;22.90;99.90;;;;;;5021189;28;20192;-61
2022/01/30 11:49:55;;;;;;;12.93;3.90;;;23.20;99.90;;;;;;5030654;28;20257;-60
2022/01/30 11:52:41;;;;;;;16.80;3.78;;;23.10;99.90;;;;;;5030348;28;20178;-60
2022/01/30 11:55:27;;;;;;;14.63;3.50;;;22.70;99.90;;;;;;5022991;28;20199;-60
2022/01/30 11:57:52;;;;;;;17.52;3.60;;;22.00;99.90;;;;;;5006379;28;20688;-60
2022/01/30 12:00:35;;;;;;;15.60;3.17;;;21.60;99.90;;;;;;5030734;28;20276;-60
2022/01/30 12:03:21;;;;;;;8.60;2.83;;;21.60;99.90;;;;;;5029309;28;20722;-60
2022/01/30 12:05:47;;;;;;;17.02;3.90;;;22.10;99.90;;;;;;5029763;28;20201;-60
2022/01/30 12:08:44;;;;;;;19.38;3.65;;;20.90;99.90;;;;;;5030920;28;20597;-60
2022/01/30 12:11:39;;;;;;;16.80;3.80;;;22.20;99.90;;;;;;5010287;28;20181;-60
2022/01/30 12:14:10;;;;;;;16.40;4.28;;;20.50;99.90;;;;;;5023808;28;20178;-60
2022/01/30 12:16:43;;;;;;;19.45;3.83;;;21.40;99.90;;;;;;5029213;28;20217;-61
2022/01/30 12:19:09;;;;;;;16.70;3.72;;;22.20;99.90;;;;;;5011086;28;20253;-60
2022/01/30 12:21:35;;;;;;;11.30;3.22;;;22.80;99.90;;;;;;5011160;28;20206;-60
2022/01/30 12:24:23;;;;;;;12.77;3.85;;;22.80;99.90;;;;;;5020831;28;20166;-61
2022/01/30 12:26:53;;;;;;;17.38;3.78;;;20.80;99.90;;;;;;5003529;28;20536;-60
2022/01/30 12:29:38;;;;;;;18.50;3.67;;;21.30;99.90;;;;;;5024832;28;20179;-60
2022/01/30 12:32:22;;;;;;;15.13;3.45;;;21.60;99.90;;;;;;5011039;28;20175;-61
2022/01/30 12:34:57;;;;;;;15.77;4.32;;;19.90;99.90;;;;;;5026492;28;20620;-60
2022/01/30 12:37:27;;;;;;;31.92;9.77;;;21.20;99.90;;;;;;5012494;28;20182;-60
2022/01/30 12:39:54;;;;;;;21.42;7.50;;;21.10;99.90;;;;;;5030868;28;20174;-60
2022/01/30 12:42:21;;;;;;;63.03;21.77;;;21.20;99.90;;;;;;5030462;28;20210;-61
2022/01/30 12:44:48;;;;;;;12.52;3.45;;;20.90;99.90;;;;;;5029759;28;20245;-61
2022/01/30 12:47:15;;;;;;;12.60;3.10;;;20.00;99.90;;;;;;5029993;28;20178;-61
2022/01/30 12:49:47;;;;;;;12.38;2.55;;;20.00;99.90;;;;;;5026488;28;20257;-63
2022/01/30 12:55:00;;;;;;;17.70;3.53;;;21.00;99.90;;;;;;5025811;28;20619;-60
2022/01/30 12:57:27;;;;;;;15.57;2.80;;;19.30;99.90;;;;;;5028621;28;20188;-60
2022/01/30 12:59:58;;;;;;;31.92;6.28;;;19.40;99.90;;;;;;5026735;28;20170;-60
2022/01/30 13:02:33;;;;;;;14.38;3.28;;;19.50;99.90;;;;;;5026703;28;20209;-60
2022/01/30 13:05:04;;;;;;;18.30;3.58;;;19.50;99.90;;;;;;5012066;28;20628;-60
2022/01/30 13:07:30;;;;;;;11.30;2.65;;;19.30;99.90;;;;;;5022821;28;20268;-60
2022/01/30 13:10:11;;;;;;;25.13;5.63;;;18.40;99.90;;;;;;5029051;28;20174;-60
2022/01/30 13:12:37;;;;;;;23.30;3.97;;;18.40;99.90;;;;;;5030008;28;20178;-59
2022/01/30 13:15:08;;;;;;;16.98;3.83;;;18.80;99.90;;;;;;5030088;28;20678;-60
2022/01/30 13:17:33;;;;;;;11.23;2.92;;;18.90;99.90;;;;;;5029898;28;20300;-60
2022/01/30 13:20:00;;;;;;;24.85;5.38;;;18.70;99.90;;;;;;5027839;28;20273;-60
2022/01/30 13:22:36;;;;;;;16.63;4.00;;;18.50;99.90;;;;;;5011685;28;20569;-60
2022/01/30 13:25:08;;;;;;;18.75;4.75;;;18.20;99.90;;;;;;5029521;28;20212;-60
2022/01/30 13:27:42;;;;;;;13.13;2.90;;;18.50;99.90;;;;;;5025844;28;20178;-60
2022/01/30 13:30:09;;;;;;;16.85;3.85;;;16.50;99.90;;;;;;5029590;28;20245;-60
2022/01/30 13:32:39;;;;;;;14.30;3.67;;;16.30;99.90;;;;;;5029922;28;20224;-60
2022/01/30 13:35:17;;;;;;;18.25;3.53;;;15.50;99.90;;;;;;5028468;28;20249;-60
2022/01/30 13:37:44;;;;;;;19.23;4.15;;;14.70;99.90;;;;;;5012135;28;20181;-59
2022/01/30 13:40:20;;;;;;;18.83;3.53;;;15.60;99.90;;;;;;5029183;28;20178;-60
2022/01/30 13:47:52;;;;;;;19.88;4.00;;;14.90;99.90;;;;;;5028604;28;20177;-59
2022/01/30 13:50:19;;;;;;;22.25;3.22;;;14.70;99.90;;;;;;5026660;28;20232;-59
2022/01/30 13:52:45;;;;;;;22.88;4.68;;;14.70;99.90;;;;;;5022016;28;20273;-60
2022/01/30 13:55:11;;;;;;;25.48;4.38;;;14.80;99.90;;;;;;5031862;28;20597;-61